PWSweather.com
Personal Weather Stations
Station Observations
SUBOTICARS
SuboticaYU

SuboticaYU

Lat: 46.1296717, Lon: 19.641551

Elevation: 361

Station Type: Nexus

http://sumeteo.info

High Low Average
Temperature 34.3°F1.3°C 23.9°F-4.5°C 29.3°F-1.5°C
Dew Point 28.4°F-2.0°C 13.9°F-10.1°C 17.7°F-7.9°C
Winds 17.3 mph 27.8 kmh 2.3 mph 3.7 kmh 8.0 mph NW12.9 kmh NW
Wind Gusts 23.0 mph37.0 kmh 2.3 mph3.7 kmh 10.0 mph16.1 kmh
Humidity 95% 49% 63%
Pressure 29.90 in1012.5 mb 29.71 in1006.1 mb -
Precipitation 0.01 in0.3 mm - -
Hour Temp Dew Point Humidity Winds Wind Gusts Pressure Precip Precip Rate Daily Precip Total
12:00 AM 34.3°F1.3°C 22.3°F-5.4°C 61% 8.1 mph NNW13.0 kmh NNW 11.5 mph18.5 kmh 29.71 in1006.1 mb - 0.00 in0.0 mm 0.00 in0.0 mm
12:10 AM 34.2°F1.2°C 22.1°F-5.5°C 61% 9.2 mph NNW14.8 kmh NNW 8.1 mph13.0 kmh 29.71 in1006.1 mb - 0.00 in0.0 mm 0.00 in0.0 mm
12:15 AM 34.2°F1.2°C 22.5°F-5.3°C 62% 8.1 mph N13.0 kmh N 9.2 mph14.8 kmh 29.72 in1006.4 mb - 0.00 in0.0 mm 0.00 in0.0 mm
12:20 AM 34.0°F1.1°C 22.7°F-5.2°C 63% 6.9 mph N11.1 kmh N 10.4 mph16.7 kmh 29.72 in1006.4 mb - 0.00 in0.0 mm 0.00 in0.0 mm
12:25 AM 34.0°F1.1°C 22.7°F-5.2°C 63% 6.9 mph NE11.1 kmh NE 8.1 mph13.0 kmh 29.72 in1006.4 mb - 0.00 in0.0 mm 0.00 in0.0 mm
12:30 AM 33.8°F1.0°C 22.5°F-5.3°C 63% 6.9 mph NW11.1 kmh NW 6.9 mph11.1 kmh 29.72 in1006.4 mb - 0.00 in0.0 mm 0.00 in0.0 mm
12:35 AM 33.8°F1.0°C 22.5°F-5.3°C 63% 8.1 mph NNW13.0 kmh NNW 9.2 mph14.8 kmh 29.72 in1006.4 mb - 0.00 in0.0 mm 0.00 in0.0 mm
12:40 AM 33.8°F1.0°C 22.5°F-5.3°C 63% 6.9 mph NNW11.1 kmh NNW 12.7 mph20.4 kmh 29.72 in1006.4 mb - 0.00 in0.0 mm 0.00 in0.0 mm
12:45 AM 33.8°F1.0°C 22.5°F-5.3°C 63% 10.4 mph NNE16.7 kmh NNE 13.8 mph22.2 kmh 29.72 in1006.4 mb - 0.00 in0.0 mm 0.00 in0.0 mm
12:50 AM 33.6°F0.9°C 22.4°F-5.3°C 63% 8.1 mph NNW13.0 kmh NNW 8.1 mph13.0 kmh 29.73 in1006.8 mb - 0.00 in0.0 mm 0.00 in0.0 mm
12:55 AM 33.6°F0.9°C 22.4°F-5.3°C 63% 10.4 mph NNW16.7 kmh NNW 10.4 mph16.7 kmh 29.73 in1006.8 mb - 0.00 in0.0 mm 0.00 in0.0 mm
01:00 AM 33.6°F0.9°C 22.4°F-5.3°C 63% 9.2 mph N14.8 kmh N 10.4 mph16.7 kmh 29.73 in1006.8 mb - 0.00 in0.0 mm 0.00 in0.0 mm
01:10 AM 32.9°F0.5°C 23.2°F-4.9°C 67% 12.7 mph N20.4 kmh N 12.7 mph20.4 kmh 29.74 in1007.1 mb - 0.00 in0.0 mm 0.00 in0.0 mm
01:15 AM 32.4°F0.2°C 23.7°F-4.6°C 70% 11.5 mph N18.5 kmh N 13.8 mph22.2 kmh 29.74 in1007.1 mb - 0.00 in0.0 mm 0.00 in0.0 mm
01:20 AM 32.0°F0.0°C 25.0°F-3.9°C 75% 10.4 mph N16.7 kmh N 11.5 mph18.5 kmh 29.75 in1007.5 mb - 0.00 in0.0 mm 0.00 in0.0 mm
01:25 AM 32.0°F0.0°C 25.9°F-3.4°C 78% 11.5 mph NW18.5 kmh NW 13.8 mph22.2 kmh 29.75 in1007.5 mb - 0.00 in0.0 mm 0.00 in0.0 mm
01:30 AM 31.1°F-0.5°C 26.2°F-3.2°C 82% 12.7 mph NNW20.4 kmh NNW 13.8 mph22.2 kmh 29.75 in1007.5 mb - 0.00 in0.0 mm 0.00 in0.0 mm
01:35 AM 30.7°F-0.7°C 27.0°F-2.8°C 86% 11.5 mph NNW18.5 kmh NNW 13.8 mph22.2 kmh 29.75 in1007.5 mb - 0.00 in0.0 mm 0.00 in0.0 mm
01:40 AM 30.4°F-0.9°C 27.3°F-2.6°C 88% 12.7 mph NNW20.4 kmh NNW 15.0 mph24.1 kmh 29.75 in1007.5 mb - 0.00 in0.0 mm 0.00 in0.0 mm
01:45 AM 30.2°F-1.0°C 27.6°F-2.4°C 90% 8.1 mph NNW13.0 kmh NNW 10.4 mph16.7 kmh 29.75 in1007.5 mb - 0.00 in0.0 mm 0.00 in0.0 mm
01:50 AM 30.0°F-1.1°C 27.4°F-2.6°C 90% 6.9 mph NNW11.1 kmh NNW 10.4 mph16.7 kmh 29.75 in1007.5 mb - 0.00 in0.0 mm 0.00 in0.0 mm
01:55 AM 30.0°F-1.1°C 28.0°F-2.2°C 92% 9.2 mph N14.8 kmh N 11.5 mph18.5 kmh 29.75 in1007.5 mb - 0.00 in0.0 mm 0.00 in0.0 mm
02:00 AM 29.8°F-1.2°C 28.3°F-2.1°C 94% 6.9 mph NNW11.1 kmh NNW 6.9 mph11.1 kmh 29.76 in1007.8 mb - 0.00 in0.0 mm 0.00 in0.0 mm
02:10 AM 29.7°F-1.3°C 28.1°F-2.2°C 94% 6.9 mph N11.1 kmh N 9.2 mph14.8 kmh 29.76 in1007.8 mb - 0.00 in0.0 mm 0.00 in0.0 mm
02:15 AM 29.7°F-1.3°C 28.4°F-2.0°C 95% 9.2 mph NNW14.8 kmh NNW 10.4 mph16.7 kmh 29.76 in1007.8 mb - 0.00 in0.0 mm 0.00 in0.0 mm
02:20 AM 29.7°F-1.3°C 28.4°F-2.0°C 95% 9.2 mph NNW14.8 kmh NNW 10.4 mph16.7 kmh 29.76 in1007.8 mb - 0.00 in0.0 mm 0.00 in0.0 mm
02:25 AM 29.7°F-1.3°C 28.1°F-2.2°C 94% 9.2 mph NNW14.8 kmh NNW 10.4 mph16.7 kmh 29.76 in1007.8 mb - 0.00 in0.0 mm 0.00 in0.0 mm
02:30 AM 29.8°F-1.2°C 27.8°F-2.3°C 92% 8.1 mph N13.0 kmh N 9.2 mph14.8 kmh 29.77 in1008.1 mb - 0.00 in0.0 mm 0.00 in0.0 mm
02:35 AM 29.8°F-1.2°C 26.7°F-2.9°C 88% 8.1 mph N13.0 kmh N 11.5 mph18.5 kmh 29.77 in1008.1 mb - 0.00 in0.0 mm 0.00 in0.0 mm
02:40 AM 30.0°F-1.1°C 25.2°F-3.8°C 82% 11.5 mph NNW18.5 kmh NNW 13.8 mph22.2 kmh 29.77 in1008.1 mb - 0.00 in0.0 mm 0.00 in0.0 mm
02:45 AM 30.3°F-0.9°C 23.6°F-4.7°C 76% 12.7 mph NNW20.4 kmh NNW 13.8 mph22.2 kmh 29.77 in1008.1 mb - 0.00 in0.0 mm 0.00 in0.0 mm
02:50 AM 30.6°F-0.8°C 22.6°F-5.2°C 72% 8.1 mph NW13.0 kmh NW 12.7 mph20.4 kmh 29.77 in1008.1 mb - 0.00 in0.0 mm 0.00 in0.0 mm
02:55 AM 30.6°F-0.8°C 21.9°F-5.6°C 70% 6.9 mph N11.1 kmh N 9.2 mph14.8 kmh 29.77 in1008.1 mb - 0.00 in0.0 mm 0.00 in0.0 mm
03:00 AM 30.9°F-0.6°C 20.9°F-6.2°C 66% 13.8 mph NW22.2 kmh NW 11.5 mph18.5 kmh 29.77 in1008.1 mb - 0.00 in0.0 mm 0.00 in0.0 mm
03:10 AM 30.7°F-0.7°C 20.0°F-6.7°C 64% 11.5 mph N18.5 kmh N 11.5 mph18.5 kmh 29.77 in1008.1 mb - 0.00 in0.0 mm 0.00 in0.0 mm
03:15 AM 30.7°F-0.7°C 20.0°F-6.7°C 64% 9.2 mph NW14.8 kmh NW 15.0 mph24.1 kmh 29.77 in1008.1 mb - 0.00 in0.0 mm 0.00 in0.0 mm
03:20 AM 30.6°F-0.8°C 19.5°F-6.9°C 63% 9.2 mph NNW14.8 kmh NNW 10.4 mph16.7 kmh 29.77 in1008.1 mb - 0.00 in0.0 mm 0.00 in0.0 mm
03:25 AM 30.6°F-0.8°C 19.5°F-6.9°C 63% 8.1 mph NNW13.0 kmh NNW 11.5 mph18.5 kmh 29.77 in1008.1 mb - 0.00 in0.0 mm 0.00 in0.0 mm
03:30 AM 30.6°F-0.8°C 19.1°F-7.2°C 62% 9.2 mph NNW14.8 kmh NNW 13.8 mph22.2 kmh 29.77 in1008.1 mb - 0.00 in0.0 mm 0.00 in0.0 mm
03:35 AM 30.4°F-0.9°C 18.9°F-7.3°C 62% 8.1 mph NNW13.0 kmh NNW 9.2 mph14.8 kmh 29.77 in1008.1 mb - 0.00 in0.0 mm 0.00 in0.0 mm
03:40 AM 30.4°F-0.9°C 18.5°F-7.5°C 61% 10.4 mph NNW16.7 kmh NNW 13.8 mph22.2 kmh 29.77 in1008.1 mb - 0.00 in0.0 mm 0.00 in0.0 mm
03:45 AM 30.2°F-1.0°C 18.4°F-7.6°C 61% 8.1 mph NNW13.0 kmh NNW 11.5 mph18.5 kmh 29.77 in1008.1 mb - 0.00 in0.0 mm 0.00 in0.0 mm
03:50 AM 30.2°F-1.0°C 18.4°F-7.6°C 61% 8.1 mph NNW13.0 kmh NNW 6.9 mph11.1 kmh 29.77 in1008.1 mb - 0.00 in0.0 mm 0.00 in0.0 mm
03:55 AM 30.2°F-1.0°C 18.0°F-7.8°C 60% 10.4 mph NNW16.7 kmh NNW 12.7 mph20.4 kmh 29.77 in1008.1 mb - 0.00 in0.0 mm 0.00 in0.0 mm
04:00 AM 29.8°F-1.2°C 17.6°F-8.0°C 60% 6.9 mph NNW11.1 kmh NNW 8.1 mph13.0 kmh 29.77 in1008.1 mb - 0.00 in0.0 mm 0.00 in0.0 mm
04:10 AM 29.5°F-1.4°C 17.3°F-8.2°C 60% 10.4 mph 16.7 kmh 12.7 mph20.4 kmh 29.77 in1008.1 mb - 0.00 in0.0 mm 0.00 in0.0 mm
04:15 AM 29.3°F-1.5°C 17.5°F-8.1°C 61% 9.2 mph NNW14.8 kmh NNW 10.4 mph16.7 kmh 29.77 in1008.1 mb - 0.00 in0.0 mm 0.00 in0.0 mm
04:20 AM 29.1°F-1.6°C 17.3°F-8.2°C 61% 8.1 mph NNW13.0 kmh NNW 11.5 mph18.5 kmh 29.77 in1008.1 mb - 0.00 in0.0 mm 0.00 in0.0 mm
04:25 AM 29.1°F-1.6°C 17.3°F-8.2°C 61% 10.4 mph NW16.7 kmh NW 12.7 mph20.4 kmh 29.77 in1008.1 mb - 0.00 in0.0 mm 0.00 in0.0 mm
04:30 AM 29.3°F-1.5°C 17.1°F-8.3°C 60% 13.8 mph NNW22.2 kmh NNW 18.4 mph29.6 kmh 29.77 in1008.1 mb - 0.00 in0.0 mm 0.00 in0.0 mm
04:35 AM 29.1°F-1.6°C 17.0°F-8.3°C 60% 10.4 mph NNW16.7 kmh NNW 12.7 mph20.4 kmh 29.77 in1008.1 mb - 0.00 in0.0 mm 0.00 in0.0 mm
04:40 AM 29.1°F-1.6°C 17.0°F-8.3°C 60% 9.2 mph NNW14.8 kmh NNW 10.4 mph16.7 kmh 29.77 in1008.1 mb - 0.00 in0.0 mm 0.00 in0.0 mm
04:45 AM 28.9°F-1.7°C 16.8°F-8.4°C 60% 9.2 mph NNW14.8 kmh NNW 11.5 mph18.5 kmh 29.78 in1008.5 mb - 0.00 in0.0 mm 0.00 in0.0 mm
04:50 AM 28.9°F-1.7°C 16.8°F-8.4°C 60% 8.1 mph N13.0 kmh N 12.7 mph20.4 kmh 29.78 in1008.5 mb - 0.00 in0.0 mm 0.00 in0.0 mm
04:55 AM 28.6°F-1.9°C 16.8°F-8.4°C 61% 6.9 mph NNW11.1 kmh NNW 8.1 mph13.0 kmh 29.78 in1008.5 mb - 0.00 in0.0 mm 0.00 in0.0 mm
05:00 AM 28.8°F-1.8°C 17.0°F-8.3°C 61% 6.9 mph NNW11.1 kmh NNW 8.1 mph13.0 kmh 29.78 in1008.5 mb - 0.00 in0.0 mm 0.00 in0.0 mm
05:10 AM 28.6°F-1.9°C 16.8°F-8.4°C 61% 9.2 mph NNW14.8 kmh NNW 6.9 mph11.1 kmh 29.78 in1008.5 mb - 0.00 in0.0 mm 0.00 in0.0 mm
05:15 AM 28.6°F-1.9°C 16.8°F-8.4°C 61% 10.4 mph NW16.7 kmh NW 10.4 mph16.7 kmh 29.78 in1008.5 mb - 0.00 in0.0 mm 0.00 in0.0 mm
05:20 AM 28.6°F-1.9°C 16.4°F-8.7°C 60% 9.2 mph NNE14.8 kmh NNE 13.8 mph22.2 kmh 29.78 in1008.5 mb - 0.00 in0.0 mm 0.00 in0.0 mm
05:25 AM 28.4°F-2.0°C 16.7°F-8.5°C 61% 9.2 mph NNW14.8 kmh NNW 11.5 mph18.5 kmh 29.78 in1008.5 mb - 0.00 in0.0 mm 0.00 in0.0 mm
05:30 AM 28.4°F-2.0°C 16.7°F-8.5°C 61% 11.5 mph N18.5 kmh N 12.7 mph20.4 kmh 29.79 in1008.8 mb - 0.00 in0.0 mm 0.00 in0.0 mm
05:35 AM 28.4°F-2.0°C 16.7°F-8.5°C 61% 8.1 mph N13.0 kmh N 10.4 mph16.7 kmh 29.79 in1008.8 mb - 0.00 in0.0 mm 0.00 in0.0 mm
05:40 AM 28.4°F-2.0°C 16.7°F-8.5°C 61% 12.7 mph NNW20.4 kmh NNW 13.8 mph22.2 kmh 29.79 in1008.8 mb - 0.00 in0.0 mm 0.00 in0.0 mm
05:45 AM 28.5°F-1.9°C 16.7°F-8.5°C 61% 10.4 mph NNE16.7 kmh NNE 12.7 mph20.4 kmh 29.79 in1008.8 mb - 0.00 in0.0 mm 0.00 in0.0 mm
05:50 AM 28.4°F-2.0°C 16.7°F-8.5°C 61% 8.1 mph NNW13.0 kmh NNW 8.1 mph13.0 kmh 29.79 in1008.8 mb - 0.00 in0.0 mm 0.00 in0.0 mm
05:55 AM 28.4°F-2.0°C 16.7°F-8.5°C 61% 11.5 mph NNW18.5 kmh NNW 13.8 mph22.2 kmh 29.79 in1008.8 mb - 0.00 in0.0 mm 0.00 in0.0 mm
06:00 AM 28.6°F-1.9°C 16.4°F-8.7°C 60% 11.5 mph NNW18.5 kmh NNW 12.7 mph20.4 kmh 29.79 in1008.8 mb - 0.00 in0.0 mm 0.00 in0.0 mm
06:10 AM 28.2°F-2.1°C 16.5°F-8.6°C 61% 11.5 mph NNW18.5 kmh NNW 12.7 mph20.4 kmh 29.80 in1009.1 mb - 0.00 in0.0 mm 0.00 in0.0 mm
06:15 AM 28.2°F-2.1°C 16.5°F-8.6°C 61% 9.2 mph N14.8 kmh N 13.8 mph22.2 kmh 29.80 in1009.1 mb - 0.00 in0.0 mm 0.00 in0.0 mm
06:20 AM 28.2°F-2.1°C 16.5°F-8.6°C 61% 8.1 mph NW13.0 kmh NW 9.2 mph14.8 kmh 29.80 in1009.1 mb - 0.00 in0.0 mm 0.00 in0.0 mm
06:25 AM 28.0°F-2.2°C 16.3°F-8.7°C 61% 9.2 mph NW14.8 kmh NW 10.4 mph16.7 kmh 29.80 in1009.1 mb - 0.00 in0.0 mm 0.00 in0.0 mm
06:30 AM 27.9°F-2.3°C 16.1°F-8.8°C 61% 9.2 mph NNW14.8 kmh NNW 9.2 mph14.8 kmh 29.80 in1009.1 mb - 0.00 in0.0 mm 0.00 in0.0 mm
06:35 AM 27.9°F-2.3°C 16.1°F-8.8°C 61% 8.1 mph NNW13.0 kmh NNW 10.4 mph16.7 kmh 29.81 in1009.5 mb - 0.00 in0.0 mm 0.00 in0.0 mm
06:40 AM 27.9°F-2.3°C 16.1°F-8.8°C 61% 9.2 mph NW14.8 kmh NW 11.5 mph18.5 kmh 29.81 in1009.5 mb - 0.00 in0.0 mm 0.00 in0.0 mm
06:45 AM 27.7°F-2.4°C 16.0°F-8.9°C 61% 8.1 mph NNW13.0 kmh NNW 12.7 mph20.4 kmh 29.81 in1009.5 mb - 0.00 in0.0 mm 0.00 in0.0 mm
06:50 AM 27.9°F-2.3°C 16.1°F-8.8°C 61% 9.2 mph NW14.8 kmh NW 11.5 mph18.5 kmh 29.81 in1009.5 mb - 0.00 in0.0 mm 0.00 in0.0 mm
06:55 AM 27.9°F-2.3°C 16.1°F-8.8°C 61% 10.4 mph NNW16.7 kmh NNW 13.8 mph22.2 kmh 29.81 in1009.5 mb - 0.00 in0.0 mm 0.00 in0.0 mm
07:00 AM 27.9°F-2.3°C 16.5°F-8.6°C 62% 9.2 mph NW14.8 kmh NW 11.5 mph18.5 kmh 29.81 in1009.5 mb - 0.00 in0.0 mm 0.00 in0.0 mm
07:10 AM 28.1°F-2.2°C 16.4°F-8.7°C 61% 13.8 mph NW22.2 kmh NW 16.1 mph25.9 kmh 29.82 in1009.8 mb - 0.00 in0.0 mm 0.00 in0.0 mm
07:15 AM 28.2°F-2.1°C 16.5°F-8.6°C 61% 12.7 mph NW20.4 kmh NW 13.8 mph22.2 kmh 29.82 in1009.8 mb - 0.00 in0.0 mm 0.00 in0.0 mm
07:20 AM 28.2°F-2.1°C 16.5°F-8.6°C 61% 10.4 mph NNW16.7 kmh NNW 11.5 mph18.5 kmh 29.82 in1009.8 mb - 0.00 in0.0 mm 0.00 in0.0 mm
07:25 AM 28.2°F-2.1°C 16.9°F-8.4°C 62% 12.7 mph N20.4 kmh N 12.7 mph20.4 kmh 29.82 in1009.8 mb - 0.00 in0.0 mm 0.00 in0.0 mm
07:30 AM 28.2°F-2.1°C 16.5°F-8.6°C 61% 12.7 mph NNW20.4 kmh NNW 15.0 mph24.1 kmh 29.82 in1009.8 mb - 0.00 in0.0 mm 0.00 in0.0 mm
07:35 AM 28.2°F-2.1°C 16.5°F-8.6°C 61% 10.4 mph NW16.7 kmh NW 11.5 mph18.5 kmh 29.82 in1009.8 mb - 0.00 in0.0 mm 0.00 in0.0 mm
07:40 AM 28.0°F-2.2°C 16.3°F-8.7°C 61% 6.9 mph N11.1 kmh N 9.2 mph14.8 kmh 29.82 in1009.8 mb - 0.00 in0.0 mm 0.00 in0.0 mm
07:45 AM 28.0°F-2.2°C 16.3°F-8.7°C 61% 10.4 mph NW16.7 kmh NW 13.8 mph22.2 kmh 29.83 in1010.2 mb - 0.00 in0.0 mm 0.00 in0.0 mm
07:50 AM 28.0°F-2.2°C 16.3°F-8.7°C 61% 10.4 mph NNW16.7 kmh NNW 15.0 mph24.1 kmh 29.83 in1010.2 mb - 0.00 in0.0 mm 0.00 in0.0 mm
07:55 AM 28.2°F-2.1°C 16.5°F-8.6°C 61% 10.4 mph NW16.7 kmh NW 11.5 mph18.5 kmh 29.83 in1010.2 mb - 0.00 in0.0 mm 0.00 in0.0 mm
08:00 AM 28.2°F-2.1°C 16.5°F-8.6°C 61% 10.4 mph NW16.7 kmh NW 12.7 mph20.4 kmh 29.84 in1010.5 mb - 0.00 in0.0 mm 0.00 in0.0 mm
08:10 AM 28.2°F-2.1°C 16.5°F-8.6°C 61% 11.5 mph NNW18.5 kmh NNW 17.3 mph27.8 kmh 29.84 in1010.5 mb - 0.00 in0.0 mm 0.00 in0.0 mm
08:15 AM 28.2°F-2.1°C 16.5°F-8.6°C 61% 11.5 mph NNW18.5 kmh NNW 11.5 mph18.5 kmh 29.84 in1010.5 mb - 0.00 in0.0 mm 0.00 in0.0 mm
08:20 AM 28.4°F-2.0°C 16.7°F-8.5°C 61% 10.4 mph NW16.7 kmh NW 11.5 mph18.5 kmh 29.84 in1010.5 mb - 0.00 in0.0 mm 0.00 in0.0 mm
08:25 AM 28.4°F-2.0°C 16.7°F-8.5°C 61% 11.5 mph NNW18.5 kmh NNW 11.5 mph18.5 kmh 29.84 in1010.5 mb - 0.00 in0.0 mm 0.00 in0.0 mm
08:30 AM 28.6°F-1.9°C 16.4°F-8.7°C 60% 10.4 mph N16.7 kmh N 15.0 mph24.1 kmh 29.84 in1010.5 mb - 0.00 in0.0 mm 0.00 in0.0 mm
08:35 AM 28.7°F-1.8°C 16.6°F-8.6°C 60% 11.5 mph NNW18.5 kmh NNW 11.5 mph18.5 kmh 29.85 in1010.8 mb - 0.00 in0.0 mm 0.00 in0.0 mm
08:40 AM 28.8°F-1.8°C 16.7°F-8.5°C 60% 8.1 mph NNW13.0 kmh NNW 11.5 mph18.5 kmh 29.85 in1010.8 mb - 0.00 in0.0 mm 0.00 in0.0 mm
08:45 AM 29.0°F-1.7°C 16.4°F-8.7°C 59% 10.4 mph NW16.7 kmh NW 12.7 mph20.4 kmh 29.85 in1010.8 mb - 0.00 in0.0 mm 0.00 in0.0 mm
08:50 AM 29.1°F-1.6°C 16.6°F-8.6°C 59% 10.4 mph NW16.7 kmh NW 13.8 mph22.2 kmh 29.85 in1010.8 mb - 0.00 in0.0 mm 0.00 in0.0 mm
08:55 AM 29.3°F-1.5°C 16.7°F-8.5°C 59% 12.7 mph NW20.4 kmh NW 17.3 mph27.8 kmh 29.85 in1010.8 mb - 0.00 in0.0 mm 0.00 in0.0 mm
09:00 AM 29.5°F-1.4°C 16.5°F-8.6°C 58% 10.4 mph NNW16.7 kmh NNW 15.0 mph24.1 kmh 29.85 in1010.8 mb - 0.00 in0.0 mm 0.00 in0.0 mm
09:10 AM 29.7°F-1.3°C 16.7°F-8.5°C 58% 11.5 mph NNE18.5 kmh NNE 23.0 mph37.0 kmh 29.85 in1010.8 mb - 0.00 in0.0 mm 0.00 in0.0 mm
09:15 AM 29.7°F-1.3°C 16.3°F-8.7°C 57% 11.5 mph NNW18.5 kmh NNW 13.8 mph22.2 kmh 29.85 in1010.8 mb - 0.00 in0.0 mm 0.00 in0.0 mm
09:20 AM 29.8°F-1.2°C 16.8°F-8.4°C 58% 9.2 mph NW14.8 kmh NW 13.8 mph22.2 kmh 29.85 in1010.8 mb - 0.00 in0.0 mm 0.00 in0.0 mm
09:25 AM 29.8°F-1.2°C 16.4°F-8.7°C 57% 12.7 mph NNW20.4 kmh NNW 13.8 mph22.2 kmh 29.85 in1010.8 mb - 0.00 in0.0 mm 0.00 in0.0 mm
09:30 AM 30.0°F-1.1°C 16.6°F-8.6°C 57% 9.2 mph NNW14.8 kmh NNW 16.1 mph25.9 kmh 29.85 in1010.8 mb - 0.00 in0.0 mm 0.00 in0.0 mm
09:35 AM 30.2°F-1.0°C 16.8°F-8.4°C 57% 8.1 mph NNW13.0 kmh NNW 10.4 mph16.7 kmh 29.86 in1011.2 mb - 0.00 in0.0 mm 0.00 in0.0 mm
09:40 AM 30.2°F-1.0°C 16.8°F-8.4°C 57% 10.4 mph N16.7 kmh N 13.8 mph22.2 kmh 29.86 in1011.2 mb - 0.00 in0.0 mm 0.00 in0.0 mm
09:45 AM 30.2°F-1.0°C 16.4°F-8.7°C 56% 9.2 mph NNW14.8 kmh NNW 12.7 mph20.4 kmh 29.86 in1011.2 mb - 0.00 in0.0 mm 0.00 in0.0 mm
09:50 AM 30.2°F-1.0°C 16.4°F-8.7°C 56% 10.4 mph NNE16.7 kmh NNE 13.8 mph22.2 kmh 29.86 in1011.2 mb - 0.00 in0.0 mm 0.00 in0.0 mm
09:55 AM 30.0°F-1.1°C 17.0°F-8.3°C 58% 10.4 mph NNE16.7 kmh NNE 13.8 mph22.2 kmh 29.86 in1011.2 mb - 0.00 in0.0 mm 0.00 in0.0 mm
10:00 AM 29.7°F-1.3°C 17.1°F-8.3°C 59% 15.0 mph NE24.1 kmh NE 16.1 mph25.9 kmh 29.86 in1011.2 mb - 0.00 in0.0 mm 0.00 in0.0 mm
10:10 AM 30.1°F-1.1°C 17.5°F-8.1°C 59% 8.1 mph NNW13.0 kmh NNW 8.1 mph13.0 kmh 29.86 in1011.2 mb - 0.00 in0.0 mm 0.00 in0.0 mm
10:15 AM 30.2°F-1.0°C 17.2°F-8.2°C 58% 9.2 mph NW14.8 kmh NW 9.2 mph14.8 kmh 29.87 in1011.5 mb - 0.00 in0.0 mm 0.00 in0.0 mm
10:20 AM 30.0°F-1.1°C 17.0°F-8.3°C 58% 11.5 mph NNW18.5 kmh NNW 9.2 mph14.8 kmh 29.87 in1011.5 mb - 0.00 in0.0 mm 0.00 in0.0 mm
10:25 AM 30.2°F-1.0°C 17.2°F-8.2°C 58% 6.9 mph NNW11.1 kmh NNW 12.7 mph20.4 kmh 29.87 in1011.5 mb - 0.00 in0.0 mm 0.00 in0.0 mm
10:30 AM 30.2°F-1.0°C 17.2°F-8.2°C 58% 10.4 mph N16.7 kmh N 11.5 mph18.5 kmh 29.87 in1011.5 mb - 0.00 in0.0 mm 0.00 in0.0 mm
10:35 AM 30.2°F-1.0°C 16.8°F-8.4°C 57% 11.5 mph NNW18.5 kmh NNW 13.8 mph22.2 kmh 29.87 in1011.5 mb - 0.00 in0.0 mm 0.00 in0.0 mm
10:40 AM 30.0°F-1.1°C 17.0°F-8.3°C 58% 9.2 mph NNW14.8 kmh NNW 13.8 mph22.2 kmh 29.87 in1011.5 mb - 0.00 in0.0 mm 0.00 in0.0 mm
10:45 AM 29.8°F-1.2°C 16.8°F-8.4°C 58% 12.7 mph NNW20.4 kmh NNW 17.3 mph27.8 kmh 29.87 in1011.5 mb - 0.00 in0.0 mm 0.00 in0.0 mm
10:50 AM 30.0°F-1.1°C 17.0°F-8.3°C 58% 6.9 mph N11.1 kmh N 10.4 mph16.7 kmh 29.87 in1011.5 mb - 0.00 in0.0 mm 0.00 in0.0 mm
10:55 AM 30.2°F-1.0°C 16.8°F-8.4°C 57% 5.8 mph N9.3 kmh N 8.1 mph13.0 kmh 29.87 in1011.5 mb - 0.00 in0.0 mm 0.00 in0.0 mm
11:00 AM 30.4°F-0.9°C 16.9°F-8.4°C 57% 11.5 mph N18.5 kmh N 13.8 mph22.2 kmh 29.87 in1011.5 mb - 0.00 in0.0 mm 0.00 in0.0 mm
11:10 AM 30.6°F-0.8°C 16.3°F-8.7°C 55% 11.5 mph NNW18.5 kmh NNW 16.1 mph25.9 kmh 29.87 in1011.5 mb - 0.00 in0.0 mm 0.00 in0.0 mm
11:15 AM 30.9°F-0.6°C 16.6°F-8.6°C 55% 9.2 mph NNW14.8 kmh NNW 12.7 mph20.4 kmh 29.86 in1011.2 mb - 0.00 in0.0 mm 0.00 in0.0 mm
11:20 AM 30.9°F-0.6°C 16.2°F-8.8°C 54% 8.1 mph NE13.0 kmh NE 8.1 mph13.0 kmh 29.86 in1011.2 mb - 0.00 in0.0 mm 0.00 in0.0 mm
11:25 AM 30.9°F-0.6°C 16.2°F-8.8°C 54% 10.4 mph NNW16.7 kmh NNW 12.7 mph20.4 kmh 29.86 in1011.2 mb - 0.00 in0.0 mm 0.00 in0.0 mm
11:30 AM 31.1°F-0.5°C 16.4°F-8.7°C 54% 8.1 mph N13.0 kmh N 10.4 mph16.7 kmh 29.86 in1011.2 mb - 0.00 in0.0 mm 0.00 in0.0 mm
11:35 AM 31.3°F-0.4°C 16.5°F-8.6°C 54% 5.8 mph NNE9.3 kmh NNE 10.4 mph16.7 kmh 29.86 in1011.2 mb - 0.00 in0.0 mm 0.00 in0.0 mm
11:40 AM 31.3°F-0.4°C 16.5°F-8.6°C 54% 6.9 mph NNW11.1 kmh NNW 8.1 mph13.0 kmh 29.86 in1011.2 mb - 0.00 in0.0 mm 0.00 in0.0 mm
11:45 AM 31.5°F-0.3°C 16.7°F-8.5°C 54% 5.8 mph N9.3 kmh N 8.1 mph13.0 kmh 29.86 in1011.2 mb - 0.00 in0.0 mm 0.00 in0.0 mm
11:50 AM 31.5°F-0.3°C 16.7°F-8.5°C 54% 9.2 mph NNW14.8 kmh NNW 10.4 mph16.7 kmh 29.86 in1011.2 mb - 0.00 in0.0 mm 0.00 in0.0 mm
11:55 AM 31.5°F-0.3°C 16.7°F-8.5°C 54% 10.4 mph NW16.7 kmh NW 13.8 mph22.2 kmh 29.86 in1011.2 mb - 0.00 in0.0 mm 0.00 in0.0 mm
12:00 PM 31.5°F-0.3°C 16.3°F-8.7°C 53% 9.2 mph N14.8 kmh N 9.2 mph14.8 kmh 29.86 in1011.2 mb - 0.00 in0.0 mm 0.00 in0.0 mm
12:10 PM 31.7°F-0.2°C 16.5°F-8.6°C 53% 5.8 mph NNE9.3 kmh NNE 9.2 mph14.8 kmh 29.86 in1011.2 mb - 0.00 in0.0 mm 0.00 in0.0 mm
12:15 PM 31.8°F-0.1°C 16.6°F-8.6°C 53% 8.1 mph NNW13.0 kmh NNW 6.9 mph11.1 kmh 29.85 in1010.8 mb - 0.00 in0.0 mm 0.00 in0.0 mm
12:20 PM 31.8°F-0.1°C 16.6°F-8.6°C 53% 9.2 mph NW14.8 kmh NW 8.1 mph13.0 kmh 29.85 in1010.8 mb - 0.00 in0.0 mm 0.00 in0.0 mm
12:25 PM 32.0°F0.0°C 16.8°F-8.4°C 53% 9.2 mph N14.8 kmh N 11.5 mph18.5 kmh 29.85 in1010.8 mb - 0.00 in0.0 mm 0.00 in0.0 mm
12:30 PM 32.4°F0.2°C 17.1°F-8.3°C 53% 9.2 mph NNW14.8 kmh NNW 12.7 mph20.4 kmh 29.85 in1010.8 mb - 0.00 in0.0 mm 0.00 in0.0 mm
12:35 PM 32.8°F0.4°C 17.1°F-8.3°C 52% 6.9 mph N11.1 kmh N 10.4 mph16.7 kmh 29.85 in1010.8 mb - 0.00 in0.0 mm 0.00 in0.0 mm
12:40 PM 33.3°F0.7°C 17.5°F-8.1°C 52% 10.4 mph NW16.7 kmh NW 13.8 mph22.2 kmh 29.85 in1010.8 mb - 0.00 in0.0 mm 0.00 in0.0 mm
12:45 PM 33.3°F0.7°C 17.1°F-8.3°C 51% 11.5 mph NNW18.5 kmh NNW 13.8 mph22.2 kmh 29.85 in1010.8 mb - 0.00 in0.0 mm 0.00 in0.0 mm
12:50 PM 33.4°F0.8°C 17.2°F-8.2°C 51% 11.5 mph N18.5 kmh N 13.8 mph22.2 kmh 29.85 in1010.8 mb - 0.00 in0.0 mm 0.00 in0.0 mm
12:55 PM 33.8°F1.0°C 17.6°F-8.0°C 51% 12.7 mph NNW20.4 kmh NNW 16.1 mph25.9 kmh 29.85 in1010.8 mb - 0.00 in0.0 mm 0.00 in0.0 mm
01:00 PM 33.6°F0.9°C 17.4°F-8.1°C 51% 8.1 mph NE13.0 kmh NE 11.5 mph18.5 kmh 29.84 in1010.5 mb - 0.00 in0.0 mm 0.00 in0.0 mm
01:10 PM 33.3°F0.7°C 17.1°F-8.3°C 51% 8.1 mph NNW13.0 kmh NNW 10.4 mph16.7 kmh 29.84 in1010.5 mb - 0.00 in0.0 mm 0.00 in0.0 mm
01:15 PM 33.4°F0.8°C 17.2°F-8.2°C 51% 9.2 mph NNW14.8 kmh NNW 9.2 mph14.8 kmh 29.84 in1010.5 mb - 0.00 in0.0 mm 0.00 in0.0 mm
01:20 PM 33.4°F0.8°C 17.2°F-8.2°C 51% 8.1 mph NW13.0 kmh NW 11.5 mph18.5 kmh 29.85 in1010.8 mb - 0.00 in0.0 mm 0.00 in0.0 mm
01:25 PM 33.1°F0.6°C 16.9°F-8.4°C 51% 13.8 mph NNW22.2 kmh NNW 15.0 mph24.1 kmh 29.85 in1010.8 mb - 0.00 in0.0 mm 0.00 in0.0 mm
01:30 PM 33.1°F0.6°C 16.9°F-8.4°C 51% 8.1 mph NNW13.0 kmh NNW 5.8 mph9.3 kmh 29.85 in1010.8 mb - 0.00 in0.0 mm 0.00 in0.0 mm
01:35 PM 32.9°F0.5°C 16.3°F-8.7°C 50% 10.4 mph NNW16.7 kmh NNW 16.1 mph25.9 kmh 29.85 in1010.8 mb - 0.00 in0.0 mm 0.00 in0.0 mm
01:40 PM 32.9°F0.5°C 16.7°F-8.5°C 51% 9.2 mph NNW14.8 kmh NNW 11.5 mph18.5 kmh 29.85 in1010.8 mb - 0.00 in0.0 mm 0.00 in0.0 mm
01:45 PM 32.7°F0.4°C 16.6°F-8.6°C 51% 9.2 mph NW14.8 kmh NW 11.5 mph18.5 kmh 29.84 in1010.5 mb - 0.00 in0.0 mm 0.00 in0.0 mm
01:50 PM 32.5°F0.3°C 16.4°F-8.7°C 51% 9.2 mph NNW14.8 kmh NNW 10.4 mph16.7 kmh 29.84 in1010.5 mb - 0.00 in0.0 mm 0.00 in0.0 mm
01:55 PM 32.5°F0.3°C 16.4°F-8.7°C 51% 9.2 mph NNW14.8 kmh NNW 10.4 mph16.7 kmh 29.84 in1010.5 mb - 0.00 in0.0 mm 0.00 in0.0 mm
02:00 PM 32.7°F0.4°C 16.6°F-8.6°C 51% 8.1 mph N13.0 kmh N 12.7 mph20.4 kmh 29.84 in1010.5 mb - 0.00 in0.0 mm 0.00 in0.0 mm
02:10 PM 33.3°F0.7°C 16.6°F-8.6°C 50% 10.4 mph NNW16.7 kmh NNW 13.8 mph22.2 kmh 29.84 in1010.5 mb - 0.00 in0.0 mm 0.00 in0.0 mm
02:15 PM 33.4°F0.8°C 16.8°F-8.4°C 50% 11.5 mph NNW18.5 kmh NNW 12.7 mph20.4 kmh 29.84 in1010.5 mb - 0.00 in0.0 mm 0.00 in0.0 mm
02:20 PM 33.3°F0.7°C 16.6°F-8.6°C 50% 17.3 mph N27.8 kmh N 23.0 mph37.0 kmh 29.84 in1010.5 mb - 0.00 in0.0 mm 0.00 in0.0 mm
02:25 PM 33.3°F0.7°C 16.6°F-8.6°C 50% 10.4 mph N16.7 kmh N 15.0 mph24.1 kmh 29.84 in1010.5 mb - 0.00 in0.0 mm 0.00 in0.0 mm
02:30 PM 33.3°F0.7°C 16.1°F-8.8°C 49% 12.7 mph N20.4 kmh N 17.3 mph27.8 kmh 29.84 in1010.5 mb - 0.00 in0.0 mm 0.00 in0.0 mm
02:35 PM 33.0°F0.6°C 16.4°F-8.7°C 50% 6.9 mph NW11.1 kmh NW 10.4 mph16.7 kmh 29.84 in1010.5 mb - 0.00 in0.0 mm 0.00 in0.0 mm
02:40 PM 32.5°F0.3°C 15.9°F-8.9°C 50% 11.5 mph NNW18.5 kmh NNW 10.4 mph16.7 kmh 29.84 in1010.5 mb - 0.00 in0.0 mm 0.00 in0.0 mm
02:45 PM 32.4°F0.2°C 15.8°F-9.0°C 50% 6.9 mph NW11.1 kmh NW 11.5 mph18.5 kmh 29.84 in1010.5 mb - 0.00 in0.0 mm 0.00 in0.0 mm
02:50 PM 32.2°F0.1°C 15.6°F-9.1°C 50% 10.4 mph NNW16.7 kmh NNW 9.2 mph14.8 kmh 29.84 in1010.5 mb - 0.00 in0.0 mm 0.00 in0.0 mm
02:55 PM 32.4°F0.2°C 16.2°F-8.8°C 51% 10.4 mph NNW16.7 kmh NNW 11.5 mph18.5 kmh 29.84 in1010.5 mb - 0.00 in0.0 mm 0.00 in0.0 mm
03:00 PM 32.8°F0.4°C 16.7°F-8.5°C 51% 5.8 mph NNW9.3 kmh NNW 6.9 mph11.1 kmh 29.84 in1010.5 mb - 0.00 in0.0 mm 0.00 in0.0 mm
03:10 PM 32.7°F0.4°C 16.1°F-8.8°C 50% 8.1 mph N13.0 kmh N 11.5 mph18.5 kmh 29.85 in1010.8 mb - 0.00 in0.0 mm 0.00 in0.0 mm
03:15 PM 32.7°F0.4°C 16.1°F-8.8°C 50% 9.2 mph NNW14.8 kmh NNW 13.8 mph22.2 kmh 29.84 in1010.5 mb - 0.00 in0.0 mm 0.00 in0.0 mm
03:20 PM 32.5°F0.3°C 15.9°F-8.9°C 50% 6.9 mph NW11.1 kmh NW 10.4 mph16.7 kmh 29.84 in1010.5 mb - 0.00 in0.0 mm 0.00 in0.0 mm
03:25 PM 32.4°F0.2°C 15.8°F-9.0°C 50% 13.8 mph N22.2 kmh N 16.1 mph25.9 kmh 29.84 in1010.5 mb - 0.00 in0.0 mm 0.00 in0.0 mm
03:30 PM 32.3°F0.2°C 15.7°F-9.1°C 50% 10.4 mph NNW16.7 kmh NNW 12.7 mph20.4 kmh 29.84 in1010.5 mb - 0.00 in0.0 mm 0.00 in0.0 mm
03:35 PM 32.1°F0.1°C 15.6°F-9.1°C 50% 11.5 mph NNW18.5 kmh NNW 13.8 mph22.2 kmh 29.85 in1010.8 mb - 0.00 in0.0 mm 0.00 in0.0 mm
03:40 PM 32.0°F0.0°C 15.4°F-9.2°C 50% 9.2 mph NNW14.8 kmh NNW 10.4 mph16.7 kmh 29.85 in1010.8 mb - 0.00 in0.0 mm 0.00 in0.0 mm
03:45 PM 32.0°F0.0°C 15.4°F-9.2°C 50% 10.4 mph NNW16.7 kmh NNW 9.2 mph14.8 kmh 29.84 in1010.5 mb - 0.00 in0.0 mm 0.00 in0.0 mm
03:50 PM 31.8°F-0.1°C 15.3°F-9.3°C 50% 5.8 mph NNW9.3 kmh NNW 8.1 mph13.0 kmh 29.84 in1010.5 mb - 0.00 in0.0 mm 0.00 in0.0 mm
03:55 PM 31.8°F-0.1°C 15.7°F-9.1°C 51% 6.9 mph NNW11.1 kmh NNW 9.2 mph14.8 kmh 29.84 in1010.5 mb - 0.01 in0.3 mm 0.01 in0.3 mm
04:00 PM 32.0°F0.0°C 15.4°F-9.2°C 50% 5.8 mph NNW9.3 kmh NNW 5.8 mph9.3 kmh 29.84 in1010.5 mb - 0.01 in0.3 mm 0.01 in0.3 mm
04:10 PM 31.5°F-0.3°C 15.4°F-9.2°C 51% 2.3 mph NNE3.7 kmh NNE 3.5 mph5.6 kmh 29.85 in1010.8 mb - 0.01 in0.3 mm 0.01 in0.3 mm
04:15 PM 31.3°F-0.4°C 15.2°F-9.3°C 51% 4.6 mph NNE7.4 kmh NNE 6.9 mph11.1 kmh 29.85 in1010.8 mb - 0.01 in0.3 mm 0.01 in0.3 mm
04:20 PM 30.9°F-0.6°C 14.9°F-9.5°C 51% 4.6 mph NNW7.4 kmh NNW 4.6 mph7.4 kmh 29.85 in1010.8 mb - 0.01 in0.3 mm 0.01 in0.3 mm
04:25 PM 30.9°F-0.6°C 14.9°F-9.5°C 51% 4.6 mph NNW7.4 kmh NNW 6.9 mph11.1 kmh 29.85 in1010.8 mb - 0.01 in0.3 mm 0.01 in0.3 mm
04:30 PM 30.9°F-0.6°C 14.9°F-9.5°C 51% 5.8 mph NNW9.3 kmh NNW 10.4 mph16.7 kmh 29.85 in1010.8 mb - 0.01 in0.3 mm 0.01 in0.3 mm
04:35 PM 30.7°F-0.7°C 14.7°F-9.6°C 51% 5.8 mph NNW9.3 kmh NNW 5.8 mph9.3 kmh 29.84 in1010.5 mb - 0.01 in0.3 mm 0.01 in0.3 mm
04:40 PM 30.6°F-0.8°C 14.6°F-9.7°C 51% 6.9 mph NNW11.1 kmh NNW 8.1 mph13.0 kmh 29.84 in1010.5 mb - 0.01 in0.3 mm 0.01 in0.3 mm
04:45 PM 30.4°F-0.9°C 14.4°F-9.8°C 51% 4.6 mph NNW7.4 kmh NNW 5.8 mph9.3 kmh 29.84 in1010.5 mb - 0.01 in0.3 mm 0.01 in0.3 mm
04:50 PM 30.4°F-0.9°C 14.4°F-9.8°C 51% 5.8 mph NNW9.3 kmh NNW 5.8 mph9.3 kmh 29.85 in1010.8 mb - 0.01 in0.3 mm 0.01 in0.3 mm
04:55 PM 30.2°F-1.0°C 14.7°F-9.6°C 52% 3.5 mph NNW5.6 kmh NNW 5.8 mph9.3 kmh 29.85 in1010.8 mb - 0.00 in0.0 mm 0.01 in0.3 mm
05:00 PM 30.2°F-1.0°C 15.1°F-9.4°C 53% 4.6 mph NNW7.4 kmh NNW 4.6 mph7.4 kmh 29.85 in1010.8 mb - 0.00 in0.0 mm 0.01 in0.3 mm
05:10 PM 29.7°F-1.3°C 14.6°F-9.7°C 53% 4.6 mph NNW7.4 kmh NNW 4.6 mph7.4 kmh 29.86 in1011.2 mb - 0.00 in0.0 mm 0.01 in0.3 mm
05:15 PM 29.5°F-1.4°C 14.4°F-9.8°C 53% 4.6 mph NW7.4 kmh NW 3.5 mph5.6 kmh 29.86 in1011.2 mb - 0.00 in0.0 mm 0.01 in0.3 mm
05:20 PM 28.9°F-1.7°C 13.9°F-10.1°C 53% 2.3 mph NNW3.7 kmh NNW 2.3 mph3.7 kmh 29.86 in1011.2 mb - 0.00 in0.0 mm 0.01 in0.3 mm
05:25 PM 28.6°F-1.9°C 14.0°F-10.0°C 54% 3.5 mph NW5.6 kmh NW 3.5 mph5.6 kmh 29.86 in1011.2 mb - 0.00 in0.0 mm 0.01 in0.3 mm
05:30 PM 28.5°F-1.9°C 14.0°F-10.0°C 54% 3.5 mph WNW5.6 kmh WNW 3.5 mph5.6 kmh 29.85 in1010.8 mb - 0.00 in0.0 mm 0.01 in0.3 mm
05:35 PM 28.6°F-1.9°C 14.4°F-9.8°C 55% 3.5 mph NW5.6 kmh NW 3.5 mph5.6 kmh 29.85 in1010.8 mb - 0.00 in0.0 mm 0.01 in0.3 mm
05:40 PM 28.4°F-2.0°C 14.3°F-9.8°C 55% 2.3 mph WNW3.7 kmh WNW 3.5 mph5.6 kmh 29.85 in1010.8 mb - 0.00 in0.0 mm 0.01 in0.3 mm
05:45 PM 28.2°F-2.1°C 14.5°F-9.7°C 56% 3.5 mph NW5.6 kmh NW 3.5 mph5.6 kmh 29.85 in1010.8 mb - 0.00 in0.0 mm 0.01 in0.3 mm
05:50 PM 28.0°F-2.2°C 14.3°F-9.8°C 56% 3.5 mph NNW5.6 kmh NNW 4.6 mph7.4 kmh 29.85 in1010.8 mb - 0.00 in0.0 mm 0.01 in0.3 mm
05:55 PM 28.1°F-2.2°C 14.8°F-9.6°C 57% 4.6 mph WNW7.4 kmh WNW 3.5 mph5.6 kmh 29.85 in1010.8 mb - 0.00 in0.0 mm 0.01 in0.3 mm
06:00 PM 28.0°F-2.2°C 15.2°F-9.3°C 58% 4.6 mph NW7.4 kmh NW 5.8 mph9.3 kmh 29.85 in1010.8 mb - 0.00 in0.0 mm 0.01 in0.3 mm
06:10 PM 27.7°F-2.4°C 15.2°F-9.3°C 59% 3.5 mph NNW5.6 kmh NNW 5.8 mph9.3 kmh 29.85 in1010.8 mb - 0.00 in0.0 mm 0.01 in0.3 mm
06:15 PM 27.7°F-2.4°C 15.2°F-9.3°C 59% 4.6 mph NW7.4 kmh NW 5.8 mph9.3 kmh 29.85 in1010.8 mb - 0.00 in0.0 mm 0.01 in0.3 mm
06:20 PM 27.5°F-2.5°C 15.8°F-9.0°C 61% 4.6 mph NNW7.4 kmh NNW 5.8 mph9.3 kmh 29.86 in1011.2 mb - 0.00 in0.0 mm 0.01 in0.3 mm
06:25 PM 27.3°F-2.6°C 16.0°F-8.9°C 62% 5.8 mph NW9.3 kmh NW 5.8 mph9.3 kmh 29.86 in1011.2 mb - 0.00 in0.0 mm 0.01 in0.3 mm
06:30 PM 27.3°F-2.6°C 16.4°F-8.7°C 63% 4.6 mph NW7.4 kmh NW 3.5 mph5.6 kmh 29.86 in1011.2 mb - 0.00 in0.0 mm 0.01 in0.3 mm
06:35 PM 27.3°F-2.6°C 16.4°F-8.7°C 63% 5.8 mph NNW9.3 kmh NNW 5.8 mph9.3 kmh 29.86 in1011.2 mb - 0.00 in0.0 mm 0.01 in0.3 mm
06:40 PM 27.3°F-2.6°C 16.7°F-8.5°C 64% 5.8 mph NNW9.3 kmh NNW 6.9 mph11.1 kmh 29.86 in1011.2 mb - 0.00 in0.0 mm 0.01 in0.3 mm
06:45 PM 27.3°F-2.6°C 16.7°F-8.5°C 64% 5.8 mph NNW9.3 kmh NNW 4.6 mph7.4 kmh 29.86 in1011.2 mb - 0.00 in0.0 mm 0.01 in0.3 mm
06:50 PM 27.1°F-2.7°C 16.6°F-8.6°C 64% 5.8 mph N9.3 kmh N 5.8 mph9.3 kmh 29.85 in1010.8 mb - 0.00 in0.0 mm 0.01 in0.3 mm
06:55 PM 27.1°F-2.7°C 16.9°F-8.4°C 65% 5.8 mph NW9.3 kmh NW 6.9 mph11.1 kmh 29.85 in1010.8 mb - 0.00 in0.0 mm 0.01 in0.3 mm
07:00 PM 27.1°F-2.7°C 16.9°F-8.4°C 65% 5.8 mph NNW9.3 kmh NNW 5.8 mph9.3 kmh 29.85 in1010.8 mb - 0.00 in0.0 mm 0.01 in0.3 mm
07:10 PM 27.1°F-2.7°C 16.9°F-8.4°C 65% 6.9 mph WNW11.1 kmh WNW 6.9 mph11.1 kmh 29.86 in1011.2 mb - 0.00 in0.0 mm 0.01 in0.3 mm
07:15 PM 27.1°F-2.7°C 16.9°F-8.4°C 65% 5.8 mph N9.3 kmh N 6.9 mph11.1 kmh 29.86 in1011.2 mb - 0.00 in0.0 mm 0.01 in0.3 mm
07:20 PM 27.0°F-2.8°C 17.1°F-8.3°C 66% 5.8 mph NNW9.3 kmh NNW 5.8 mph9.3 kmh 29.86 in1011.2 mb - 0.00 in0.0 mm 0.01 in0.3 mm
07:25 PM 26.9°F-2.8°C 17.0°F-8.3°C 66% 3.5 mph NW5.6 kmh NW 3.5 mph5.6 kmh 29.86 in1011.2 mb - 0.00 in0.0 mm 0.01 in0.3 mm
07:30 PM 26.6°F-3.0°C 16.8°F-8.4°C 66% 4.6 mph NNW7.4 kmh NNW 4.6 mph7.4 kmh 29.85 in1010.8 mb - 0.00 in0.0 mm 0.01 in0.3 mm
07:35 PM 26.6°F-3.0°C 16.8°F-8.4°C 66% 4.6 mph NNW7.4 kmh NNW 4.6 mph7.4 kmh 29.85 in1010.8 mb - 0.00 in0.0 mm 0.01 in0.3 mm
07:40 PM 26.4°F-3.1°C 16.9°F-8.4°C 67% 4.6 mph NW7.4 kmh NW 8.1 mph13.0 kmh 29.85 in1010.8 mb - 0.00 in0.0 mm 0.01 in0.3 mm
07:45 PM 26.2°F-3.2°C 16.8°F-8.4°C 67% 5.8 mph NNW9.3 kmh NNW 5.8 mph9.3 kmh 29.85 in1010.8 mb - 0.00 in0.0 mm 0.01 in0.3 mm
07:50 PM 26.3°F-3.2°C 17.1°F-8.3°C 68% 4.6 mph N7.4 kmh N 4.6 mph7.4 kmh 29.86 in1011.2 mb - 0.00 in0.0 mm 0.01 in0.3 mm
07:55 PM 26.1°F-3.3°C 17.0°F-8.3°C 68% 4.6 mph NNW7.4 kmh NNW 5.8 mph9.3 kmh 29.86 in1011.2 mb - 0.00 in0.0 mm 0.01 in0.3 mm
08:00 PM 26.1°F-3.3°C 16.9°F-8.4°C 68% 5.8 mph NNW9.3 kmh NNW 6.9 mph11.1 kmh 29.86 in1011.2 mb - 0.00 in0.0 mm 0.01 in0.3 mm
08:10 PM 26.1°F-3.3°C 17.3°F-8.2°C 69% 5.8 mph WNW9.3 kmh WNW 6.9 mph11.1 kmh 29.86 in1011.2 mb - 0.00 in0.0 mm 0.01 in0.3 mm
08:15 PM 25.7°F-3.5°C 16.9°F-8.4°C 69% 4.6 mph NNW7.4 kmh NNW 3.5 mph5.6 kmh 29.86 in1011.2 mb - 0.00 in0.0 mm 0.01 in0.3 mm
08:20 PM 25.5°F-3.6°C 17.1°F-8.3°C 70% 4.6 mph NW7.4 kmh NW 4.6 mph7.4 kmh 29.87 in1011.5 mb - 0.00 in0.0 mm 0.01 in0.3 mm
08:25 PM 25.2°F-3.8°C 16.7°F-8.5°C 70% 3.5 mph NNW5.6 kmh NNW 4.6 mph7.4 kmh 29.87 in1011.5 mb - 0.00 in0.0 mm 0.01 in0.3 mm
08:30 PM 25.1°F-3.8°C 16.7°F-8.5°C 70% 4.6 mph NNW7.4 kmh NNW 4.6 mph7.4 kmh 29.87 in1011.5 mb - 0.00 in0.0 mm 0.01 in0.3 mm
08:35 PM 24.8°F-4.0°C 16.7°F-8.5°C 71% 4.6 mph NNW7.4 kmh NNW 5.8 mph9.3 kmh 29.86 in1011.2 mb - 0.00 in0.0 mm 0.01 in0.3 mm
08:40 PM 24.8°F-4.0°C 16.7°F-8.5°C 71% 4.6 mph NNW7.4 kmh NNW 5.8 mph9.3 kmh 29.86 in1011.2 mb - 0.00 in0.0 mm 0.01 in0.3 mm
08:45 PM 24.8°F-4.0°C 17.1°F-8.3°C 72% 4.6 mph NNW7.4 kmh NNW 5.8 mph9.3 kmh 29.86 in1011.2 mb - 0.00 in0.0 mm 0.01 in0.3 mm
08:50 PM 24.6°F-4.1°C 16.9°F-8.4°C 72% 4.6 mph NNW7.4 kmh NNW 5.8 mph9.3 kmh 29.87 in1011.5 mb - 0.00 in0.0 mm 0.01 in0.3 mm
08:55 PM 24.4°F-4.2°C 16.7°F-8.5°C 72% 4.6 mph NNW7.4 kmh NNW 5.8 mph9.3 kmh 29.87 in1011.5 mb - 0.00 in0.0 mm 0.01 in0.3 mm
09:00 PM 24.4°F-4.2°C 17.0°F-8.3°C 73% 5.8 mph NNW9.3 kmh NNW 5.8 mph9.3 kmh 29.87 in1011.5 mb - 0.00 in0.0 mm 0.01 in0.3 mm
09:10 PM 24.3°F-4.3°C 17.2°F-8.2°C 74% 4.6 mph NW7.4 kmh NW 4.6 mph7.4 kmh 29.87 in1011.5 mb - 0.00 in0.0 mm 0.01 in0.3 mm
09:15 PM 24.3°F-4.3°C 17.2°F-8.2°C 74% 5.8 mph NNW9.3 kmh NNW 6.9 mph11.1 kmh 29.87 in1011.5 mb - 0.00 in0.0 mm 0.01 in0.3 mm
09:20 PM 24.3°F-4.3°C 17.2°F-8.2°C 74% 5.8 mph NNW9.3 kmh NNW 8.1 mph13.0 kmh 29.87 in1011.5 mb - 0.00 in0.0 mm 0.01 in0.3 mm
09:25 PM 24.4°F-4.2°C 17.6°F-8.0°C 75% 4.6 mph NNW7.4 kmh NNW 5.8 mph9.3 kmh 29.87 in1011.5 mb - 0.00 in0.0 mm 0.01 in0.3 mm
09:30 PM 24.4°F-4.2°C 17.6°F-8.0°C 75% 4.6 mph NW7.4 kmh NW 6.9 mph11.1 kmh 29.87 in1011.5 mb - 0.00 in0.0 mm 0.01 in0.3 mm
09:35 PM 24.3°F-4.3°C 17.5°F-8.1°C 75% 5.8 mph NNW9.3 kmh NNW 8.1 mph13.0 kmh 29.87 in1011.5 mb - 0.00 in0.0 mm 0.01 in0.3 mm
09:40 PM 24.3°F-4.3°C 17.5°F-8.1°C 75% 4.6 mph NNW7.4 kmh NNW 5.8 mph9.3 kmh 29.87 in1011.5 mb - 0.00 in0.0 mm 0.01 in0.3 mm
09:45 PM 24.3°F-4.3°C 17.5°F-8.1°C 75% 5.8 mph NNW9.3 kmh NNW 5.8 mph9.3 kmh 29.88 in1011.9 mb - 0.00 in0.0 mm 0.01 in0.3 mm
09:50 PM 24.4°F-4.2°C 17.6°F-8.0°C 75% 5.8 mph N9.3 kmh N 8.1 mph13.0 kmh 29.88 in1011.9 mb - 0.00 in0.0 mm 0.01 in0.3 mm
09:55 PM 24.3°F-4.3°C 17.5°F-8.1°C 75% 3.5 mph N5.6 kmh N 3.5 mph5.6 kmh 29.88 in1011.9 mb - 0.00 in0.0 mm 0.01 in0.3 mm
10:00 PM 24.2°F-4.3°C 17.5°F-8.1°C 75% 4.6 mph NNW7.4 kmh NNW 5.8 mph9.3 kmh 29.88 in1011.9 mb - 0.00 in0.0 mm 0.01 in0.3 mm
10:10 PM 24.4°F-4.2°C 18.0°F-7.8°C 76% 5.8 mph NNW9.3 kmh NNW 6.9 mph11.1 kmh 29.88 in1011.9 mb - 0.00 in0.0 mm 0.01 in0.3 mm
10:15 PM 24.3°F-4.3°C 17.8°F-7.9°C 76% 4.6 mph NW7.4 kmh NW 5.8 mph9.3 kmh 29.89 in1012.2 mb - 0.00 in0.0 mm 0.01 in0.3 mm
10:20 PM 24.3°F-4.3°C 17.8°F-7.9°C 76% 5.8 mph NNW9.3 kmh NNW 6.9 mph11.1 kmh 29.89 in1012.2 mb - 0.00 in0.0 mm 0.01 in0.3 mm
10:25 PM 24.4°F-4.2°C 18.0°F-7.8°C 76% 5.8 mph NW9.3 kmh NW 4.6 mph7.4 kmh 29.89 in1012.2 mb - 0.00 in0.0 mm 0.01 in0.3 mm
10:30 PM 24.4°F-4.2°C 18.0°F-7.8°C 76% 6.9 mph NNW11.1 kmh NNW 8.1 mph13.0 kmh 29.89 in1012.2 mb - 0.00 in0.0 mm 0.01 in0.3 mm
10:35 PM 24.6°F-4.1°C 18.1°F-7.7°C 76% 5.8 mph NNW9.3 kmh NNW 5.8 mph9.3 kmh 29.89 in1012.2 mb - 0.00 in0.0 mm 0.01 in0.3 mm
10:40 PM 24.6°F-4.1°C 18.1°F-7.7°C 76% 4.6 mph NNW7.4 kmh NNW 5.8 mph9.3 kmh 29.89 in1012.2 mb - 0.00 in0.0 mm 0.01 in0.3 mm
10:45 PM 24.6°F-4.1°C 18.1°F-7.7°C 76% 3.5 mph N5.6 kmh N 4.6 mph7.4 kmh 29.89 in1012.2 mb - 0.00 in0.0 mm 0.01 in0.3 mm
10:50 PM 24.6°F-4.1°C 18.1°F-7.7°C 76% 4.6 mph NNW7.4 kmh NNW 6.9 mph11.1 kmh 29.89 in1012.2 mb - 0.00 in0.0 mm 0.01 in0.3 mm
10:55 PM 24.6°F-4.1°C 18.1°F-7.7°C 76% 4.6 mph NNW7.4 kmh NNW 6.9 mph11.1 kmh 29.89 in1012.2 mb - 0.00 in0.0 mm 0.01 in0.3 mm
11:00 PM 24.6°F-4.1°C 18.1°F-7.7°C 76% 4.6 mph NNW7.4 kmh NNW 6.9 mph11.1 kmh 29.89 in1012.2 mb - 0.00 in0.0 mm 0.01 in0.3 mm
11:10 PM 24.6°F-4.1°C 19.0°F-7.2°C 79% 5.8 mph N9.3 kmh N 6.9 mph11.1 kmh 29.90 in1012.5 mb - 0.00 in0.0 mm 0.01 in0.3 mm
11:15 PM 24.8°F-4.0°C 19.5°F-6.9°C 80% 6.9 mph NNW11.1 kmh NNW 9.2 mph14.8 kmh 29.90 in1012.5 mb - 0.00 in0.0 mm 0.01 in0.3 mm
11:20 PM 24.8°F-4.0°C 19.5°F-6.9°C 80% 4.6 mph NW7.4 kmh NW 5.8 mph9.3 kmh 29.90 in1012.5 mb - 0.00 in0.0 mm 0.01 in0.3 mm
11:25 PM 24.8°F-4.0°C 19.2°F-7.1°C 79% 4.6 mph N7.4 kmh N 8.1 mph13.0 kmh 29.90 in1012.5 mb - 0.00 in0.0 mm 0.01 in0.3 mm
11:30 PM 24.8°F-4.0°C 18.9°F-7.3°C 78% 4.6 mph NNW7.4 kmh NNW 4.6 mph7.4 kmh 29.90 in1012.5 mb - 0.00 in0.0 mm 0.01 in0.3 mm
11:35 PM 24.8°F-4.0°C 18.9°F-7.3°C 78% 3.5 mph NNW5.6 kmh NNW 3.5 mph5.6 kmh 29.90 in1012.5 mb - 0.00 in0.0 mm 0.01 in0.3 mm
11:40 PM 24.4°F-4.2°C 18.0°F-7.8°C 76% 3.5 mph N5.6 kmh N 4.6 mph7.4 kmh 29.90 in1012.5 mb - 0.00 in0.0 mm 0.01 in0.3 mm
11:45 PM 24.3°F-4.3°C 17.8°F-7.9°C 76% 3.5 mph NNW5.6 kmh NNW 3.5 mph5.6 kmh 29.90 in1012.5 mb - 0.00 in0.0 mm 0.01 in0.3 mm
11:50 PM 24.1°F-4.4°C 17.3°F-8.2°C 75% 3.5 mph NNW5.6 kmh NNW 3.5 mph5.6 kmh 29.90 in1012.5 mb - 0.00 in0.0 mm 0.01 in0.3 mm
11:55 PM 23.9°F-4.5°C 17.1°F-8.3°C 75% 3.5 mph NW5.6 kmh NW 3.5 mph5.6 kmh 29.90 in1012.5 mb - 0.00 in0.0 mm 0.01 in0.3 mm